createdAt,value
2022-09-07T00:02:37.055Z,53.53
2022-09-07T00:06:15.839Z,53.07
2022-09-07T00:09:53.616Z,52.81
2022-09-07T00:13:35.508Z,52.86
2022-09-07T00:17:12.401Z,52.90
2022-09-07T00:21:02.469Z,52.74
2022-09-07T00:24:40.615Z,52.60
2022-09-07T00:28:18.000Z,52.21
2022-09-07T00:31:55.202Z,51.56
2022-09-07T00:35:32.616Z,50.93
2022-09-07T00:39:11.382Z,50.50
2022-09-07T00:42:49.151Z,50.09
2022-09-07T00:46:29.195Z,49.84
2022-09-07T00:50:38.374Z,49.56
2022-09-07T00:54:25.188Z,49.13
2022-09-07T00:58:02.883Z,48.60
2022-09-07T01:01:40.615Z,48.34
2022-09-07T01:05:42.008Z,47.81
2022-09-07T01:09:22.904Z,47.44
2022-09-07T01:13:03.522Z,47.20
2022-09-07T01:17:17.471Z,46.72
2022-09-07T01:21:23.840Z,46.48
2022-09-07T01:25:16.726Z,46.36
2022-09-07T01:29:20.164Z,46.23
2022-09-07T01:33:01.465Z,45.96
2022-09-07T01:36:49.213Z,45.76
2022-09-07T01:40:36.802Z,45.76
2022-09-07T01:44:17.709Z,45.70
2022-09-07T01:47:59.270Z,45.68
2022-09-07T01:51:43.054Z,45.44
2022-09-07T01:55:31.863Z,45.33
2022-09-07T01:59:29.815Z,45.31
2022-09-07T02:03:15.660Z,45.36
2022-09-07T02:07:14.426Z,45.33
2022-09-07T02:11:01.910Z,45.07
2022-09-07T02:14:52.496Z,44.94
2022-09-07T02:18:37.786Z,44.87
2022-09-07T02:22:21.599Z,44.70
2022-09-07T02:26:03.412Z,44.55
2022-09-07T02:29:42.516Z,44.34
2022-09-07T02:33:21.164Z,44.23
2022-09-07T02:37:01.882Z,44.16
2022-09-07T02:40:39.773Z,43.79
2022-09-07T02:44:22.600Z,43.60
2022-09-07T02:48:31.476Z,43.60
2022-09-07T02:52:33.459Z,42.93
2022-09-07T02:56:29.464Z,41.75
2022-09-07T03:00:17.226Z,41.58
2022-09-07T03:03:58.382Z,44.34
2022-09-07T03:07:44.395Z,47.32
2022-09-07T03:11:23.268Z,50.58
2022-09-07T03:15:00.317Z,54.37
2022-09-07T03:18:38.098Z,58.60
2022-09-07T03:22:15.284Z,60.88
2022-09-07T03:25:52.512Z,61.55
2022-09-07T03:29:30.710Z,60.26
2022-09-07T03:33:08.170Z,58.18
2022-09-07T03:36:45.285Z,56.54
2022-09-07T03:40:22.946Z,55.54
2022-09-07T03:44:05.544Z,53.91
2022-09-07T03:47:42.827Z,53.89
2022-09-07T03:51:21.202Z,57.97
2022-09-07T03:54:58.647Z,60.40
2022-09-07T03:58:36.397Z,61.07
2022-09-07T04:02:15.032Z,61.28
2022-09-07T04:05:52.773Z,60.69
2022-09-07T04:09:29.927Z,60.25
2022-09-07T04:13:07.880Z,59.52
2022-09-07T04:16:45.080Z,59.06
2022-09-07T04:20:23.199Z,58.26
2022-09-07T04:24:02.266Z,57.56
2022-09-07T04:27:39.940Z,56.85
2022-09-07T04:31:18.843Z,56.49
2022-09-07T04:34:57.029Z,56.17
2022-09-07T04:38:34.142Z,55.81
2022-09-07T04:42:11.204Z,55.25
2022-09-07T04:45:49.099Z,54.96
2022-09-07T04:49:26.673Z,54.36
2022-09-07T04:53:04.509Z,54.12
2022-09-07T04:56:42.828Z,53.61
2022-09-07T05:00:20.415Z,53.37
2022-09-07T05:04:00.922Z,53.16
2022-09-07T05:07:37.940Z,52.78
2022-09-07T05:11:16.809Z,52.46
2022-09-07T05:14:54.367Z,51.91
2022-09-07T05:18:32.075Z,51.76
2022-09-07T05:22:09.139Z,51.36
2022-09-07T05:25:47.372Z,50.98
2022-09-07T05:33:21.352Z,50.75
2022-09-07T05:36:58.922Z,50.67
2022-09-07T05:40:40.513Z,50.51
2022-09-07T05:48:21.358Z,50.01
2022-09-07T05:51:58.768Z,49.66
2022-09-07T05:55:35.952Z,49.66
2022-09-07T05:59:13.614Z,49.47
2022-09-07T06:02:52.293Z,48.94
2022-09-07T06:06:30.927Z,48.72
2022-09-07T06:14:08.640Z,48.40
2022-09-07T06:17:46.934Z,48.45
2022-09-07T06:21:24.750Z,48.30
2022-09-07T06:25:03.587Z,48.12
2022-09-07T06:28:43.664Z,47.87
2022-09-07T06:36:24.224Z,47.34
2022-09-07T06:40:02.545Z,47.14
2022-09-07T06:43:45.518Z,47.04
2022-09-07T06:47:23.995Z,46.67
2022-09-07T06:51:07.007Z,46.53
2022-09-07T06:55:00.616Z,46.06
2022-09-07T06:58:42.341Z,45.80
2022-09-07T07:02:21.261Z,45.60
2022-09-07T07:05:58.541Z,45.01
2022-09-07T07:09:35.896Z,44.74
2022-09-07T07:16:51.494Z,43.84
2022-09-07T07:20:30.454Z,43.80
2022-09-07T07:24:11.245Z,43.52
2022-09-07T07:27:45.465Z,43.68
2022-09-07T07:31:25.093Z,43.90
2022-09-07T07:35:03.606Z,43.89
2022-09-07T07:42:36.396Z,44.05
2022-09-07T07:46:16.453Z,44.36
2022-09-07T07:50:30.762Z,45.13
2022-09-07T07:53:51.822Z,46.14
2022-09-07T07:57:30.423Z,46.34
2022-09-07T08:01:12.460Z,46.74
2022-09-07T08:04:50.607Z,46.89
2022-09-07T08:08:30.334Z,47.09
2022-09-07T08:12:07.972Z,47.39
2022-09-07T08:15:45.431Z,47.29
2022-09-07T08:19:23.228Z,47.33
2022-09-07T08:40:37.222Z,47.61
2022-09-07T08:44:18.977Z,47.31
2022-09-07T08:47:56.905Z,46.53
2022-09-07T08:51:41.943Z,46.23
2022-09-07T08:55:23.969Z,46.67
2022-09-07T08:59:13.479Z,46.72
2022-09-07T09:07:11.023Z,46.68
2022-09-07T09:11:10.867Z,46.88
2022-09-07T09:15:11.192Z,46.88
2022-09-07T09:19:06.162Z,46.39
2022-09-07T09:22:43.800Z,46.44
2022-09-07T09:26:25.693Z,46.56
2022-09-07T09:30:02.878Z,46.29
2022-09-07T09:33:40.965Z,46.20
2022-09-07T09:37:34.120Z,46.15
2022-09-07T09:41:15.214Z,45.59
2022-09-07T09:44:53.826Z,44.90
2022-09-07T09:48:38.825Z,44.05
2022-09-07T09:52:43.564Z,43.68
2022-09-07T09:56:17.410Z,44.51
2022-09-07T10:00:06.957Z,43.75
2022-09-07T10:03:57.663Z,43.32
2022-09-07T10:07:38.061Z,44.75
2022-09-07T10:11:15.720Z,44.63
2022-09-07T10:14:54.323Z,45.52
2022-09-07T10:18:41.186Z,44.89
2022-09-07T10:22:37.549Z,45.31
2022-09-07T10:26:36.586Z,44.08
2022-09-07T10:30:16.764Z,43.11
2022-09-07T10:34:29.468Z,44.49
2022-09-07T10:38:22.821Z,43.74
2022-09-07T10:42:10.104Z,42.88
2022-09-07T10:46:09.837Z,40.61
2022-09-07T11:02:43.231Z,37.28
2022-09-07T11:06:48.729Z,36.86
2022-09-07T11:10:35.480Z,37.44
2022-09-07T11:14:18.426Z,38.59
2022-09-07T11:18:17.311Z,37.92
2022-09-07T11:22:03.407Z,38.32
2022-09-07T11:25:56.752Z,39.51
2022-09-07T11:29:46.732Z,39.43
2022-09-07T11:37:54.518Z,36.02
2022-09-07T11:41:49.442Z,35.93
2022-09-07T11:45:44.015Z,37.45
2022-09-07T11:49:25.783Z,37.17
2022-09-07T11:53:14.989Z,36.48
2022-09-07T11:57:14.731Z,37.29
2022-09-07T12:01:08.806Z,37.98
2022-09-07T12:05:05.131Z,38.94
2022-09-07T12:09:20.323Z,39.36
2022-09-07T12:13:06.021Z,39.65
2022-09-07T12:17:09.728Z,38.11
2022-09-07T12:20:48.996Z,38.47
2022-09-07T12:24:38.182Z,37.86
2022-09-07T12:28:19.966Z,37.58
2022-09-07T12:36:00.656Z,37.53
2022-09-07T12:39:39.133Z,35.08
2022-09-07T12:43:17.970Z,35.44
2022-09-07T12:46:58.388Z,35.36
2022-09-07T12:50:42.378Z,40.19
2022-09-07T12:54:37.628Z,43.10
2022-09-07T12:58:28.066Z,43.27
2022-09-07T13:02:31.195Z,44.91
2022-09-07T13:10:32.882Z,44.59
2022-09-07T13:14:15.687Z,44.22
2022-09-07T13:17:56.763Z,44.88
2022-09-07T13:21:42.303Z,45.00
2022-09-07T13:25:23.151Z,46.11
2022-09-07T13:29:02.538Z,47.93
2022-09-07T13:36:48.625Z,45.93
2022-09-07T13:40:30.632Z,44.92
2022-09-07T13:44:26.623Z,45.31
2022-09-07T13:48:50.194Z,45.60
2022-09-07T13:52:43.579Z,44.03
2022-09-07T13:56:30.375Z,41.63
2022-09-07T14:00:16.695Z,41.79
2022-09-07T14:04:03.517Z,41.10
2022-09-07T14:07:46.187Z,36.51
2022-09-07T14:11:48.484Z,33.57
2022-09-07T14:15:37.214Z,30.06
2022-09-07T14:19:23.987Z,26.75
2022-09-07T14:23:01.767Z,27.44
2022-09-07T14:26:46.490Z,26.08
2022-09-07T14:30:29.486Z,24.32
2022-09-07T14:34:09.043Z,24.46
2022-09-07T14:37:48.209Z,21.97
2022-09-07T14:41:28.471Z,21.23
2022-09-07T14:45:24.493Z,21.55
2022-09-07T14:49:18.174Z,22.26
2022-09-07T14:57:18.316Z,24.53
2022-09-07T15:05:15.389Z,27.32
2022-09-07T15:08:56.353Z,27.91
2022-09-07T15:12:38.573Z,28.66
2022-09-07T15:16:26.383Z,29.83
2022-09-07T15:20:32.567Z,30.93
2022-09-07T15:24:12.537Z,32.17
2022-09-07T15:27:49.935Z,34.26
2022-09-07T15:31:56.809Z,38.26
2022-09-07T15:35:28.825Z,39.90
2022-09-07T15:39:14.512Z,38.78
2022-09-07T15:43:19.829Z,37.12
2022-09-07T15:50:47.806Z,40.64
2022-09-07T15:54:26.308Z,41.50
2022-09-07T15:58:11.777Z,42.36
2022-09-07T16:01:51.936Z,45.34
2022-09-07T16:05:31.621Z,42.78
2022-09-07T16:09:09.875Z,41.60
2022-09-07T16:13:10.480Z,43.56
2022-09-07T16:20:22.517Z,44.04
2022-09-07T16:24:00.280Z,48.77
2022-09-07T16:27:38.147Z,48.56
2022-09-07T16:31:26.337Z,48.40
2022-09-07T16:35:04.931Z,49.09
2022-09-07T16:38:45.133Z,48.95
2022-09-07T16:42:23.535Z,47.75
2022-09-07T16:46:06.651Z,47.77
2022-09-07T16:49:43.975Z,47.02
2022-09-07T16:53:22.351Z,47.71
2022-09-07T16:57:00.218Z,47.63
2022-09-07T17:00:38.805Z,48.87
2022-09-07T17:04:17.342Z,49.90
2022-09-07T17:07:55.253Z,50.77
2022-09-07T17:11:34.925Z,51.17
2022-09-07T17:15:12.412Z,51.45
2022-09-07T17:22:47.603Z,50.64
2022-09-07T17:26:27.459Z,50.33
2022-09-07T17:30:07.057Z,49.97
2022-09-07T17:33:44.299Z,49.43
2022-09-07T17:37:22.912Z,49.27
2022-09-07T17:41:08.825Z,49.55
2022-09-07T17:44:46.360Z,50.16
2022-09-07T17:48:24.212Z,49.79
2022-09-07T17:52:02.754Z,49.83
2022-09-07T17:55:41.045Z,49.83
2022-09-07T18:03:16.535Z,49.91
2022-09-07T18:06:54.671Z,49.70
2022-09-07T18:14:33.329Z,49.57
2022-09-07T18:18:12.527Z,49.69
2022-09-07T18:21:50.635Z,49.38
2022-09-07T18:25:30.175Z,49.58
2022-09-07T18:29:27.338Z,49.90
2022-09-07T18:33:06.066Z,50.09
2022-09-07T18:36:43.944Z,50.68
2022-09-07T18:40:22.160Z,51.00
2022-09-07T18:44:00.470Z,51.42
2022-09-07T18:47:39.950Z,51.83
2022-09-07T18:51:19.529Z,52.40
2022-09-07T18:54:57.764Z,52.72
2022-09-07T18:58:36.471Z,52.85
2022-09-07T19:02:14.980Z,53.04
2022-09-07T19:06:00.436Z,53.43
2022-09-07T19:09:39.568Z,53.52
2022-09-07T19:13:20.044Z,54.23
2022-09-07T19:16:57.963Z,54.54
2022-09-07T19:20:36.157Z,54.73
2022-09-07T19:24:16.490Z,53.87
2022-09-07T19:27:56.486Z,52.95
2022-09-07T19:31:35.558Z,54.30
2022-09-07T19:35:13.025Z,53.61
2022-09-07T19:38:52.043Z,55.00
2022-09-07T19:42:31.007Z,55.77
2022-09-07T19:46:09.319Z,55.50
2022-09-07T19:49:46.575Z,55.49
2022-09-07T19:53:24.436Z,55.66
2022-09-07T19:57:02.351Z,55.85
2022-09-07T20:00:40.409Z,55.85
2022-09-07T20:04:20.278Z,56.09
2022-09-07T20:08:03.126Z,56.65
2022-09-07T20:11:46.038Z,56.64
2022-09-07T20:15:24.734Z,56.82
2022-09-07T20:19:02.702Z,57.21
2022-09-07T20:22:40.082Z,58.59
2022-09-07T20:26:21.217Z,59.14
2022-09-07T20:29:59.290Z,59.26
2022-09-07T20:33:38.357Z,59.81
2022-09-07T20:37:15.946Z,60.65
2022-09-07T20:40:56.009Z,60.91
2022-09-07T20:44:33.915Z,60.95
2022-09-07T20:48:11.785Z,60.75
2022-09-07T20:51:49.985Z,60.84
2022-09-07T20:55:28.124Z,60.53
2022-09-07T20:59:06.468Z,60.50
2022-09-07T21:02:44.691Z,60.18
2022-09-07T21:06:23.459Z,60.33
2022-09-07T21:10:06.036Z,59.99
2022-09-07T21:13:45.036Z,60.08
2022-09-07T21:17:22.908Z,59.89
2022-09-07T21:21:19.328Z,60.24
2022-09-07T21:25:00.461Z,59.83
2022-09-07T21:28:39.272Z,59.06
2022-09-07T21:32:16.949Z,58.16
2022-09-07T21:35:55.284Z,57.56
2022-09-07T21:39:32.584Z,57.05
2022-09-07T21:43:11.000Z,56.40
2022-09-07T21:46:52.089Z,55.96
2022-09-07T21:50:30.726Z,55.75
2022-09-07T21:54:09.103Z,55.31
2022-09-07T21:57:46.969Z,55.10
2022-09-07T22:01:26.948Z,54.86
2022-09-07T22:05:05.098Z,54.39
2022-09-07T22:08:43.554Z,54.11
2022-09-07T22:12:21.447Z,54.35
2022-09-07T22:15:59.211Z,54.93
2022-09-07T22:19:37.367Z,56.33
2022-09-07T22:23:16.445Z,57.69
2022-09-07T22:26:55.429Z,58.71
2022-09-07T22:30:34.627Z,62.74
2022-09-07T22:34:12.699Z,64.53
2022-09-07T22:37:50.978Z,64.36
2022-09-07T22:41:35.190Z,63.49
2022-09-07T22:45:13.053Z,64.59
2022-09-07T22:48:53.146Z,66.52
2022-09-07T22:52:32.413Z,67.28
2022-09-07T22:56:14.461Z,66.09
2022-09-07T22:59:52.947Z,68.04
2022-09-07T23:03:33.048Z,68.98
2022-09-07T23:07:10.695Z,69.24
2022-09-07T23:10:48.563Z,70.12
2022-09-07T23:14:26.947Z,71.22
2022-09-07T23:18:05.616Z,70.07
2022-09-07T23:21:43.906Z,70.78
2022-09-07T23:25:21.973Z,71.43
2022-09-07T23:29:05.673Z,73.08
2022-09-07T23:32:43.339Z,74.28
2022-09-07T23:36:20.899Z,74.69
2022-09-07T23:40:00.434Z,73.88
2022-09-07T23:43:37.668Z,72.16
2022-09-07T23:47:16.033Z,71.84
2022-09-07T23:50:54.411Z,70.82
2022-09-07T23:54:31.869Z,70.21
2022-09-07T23:58:10.455Z,69.90
